sensor_id;sensor_type;location;lat;lon;timestamp;P1;durP1;ratioP1;P2;durP2;ratioP2
81864;SDS011;71313;43.514;1.500;2024-02-15T00:01:30;4.57;;;2.35;;
81864;SDS011;71313;43.514;1.500;2024-02-15T00:03:56;4.63;;;2.13;;
81864;SDS011;71313;43.514;1.500;2024-02-15T00:06:22;3.92;;;2.10;;
81864;SDS011;71313;43.514;1.500;2024-02-15T00:08:47;3.50;;;2.00;;
81864;SDS011;71313;43.514;1.500;2024-02-15T00:11:13;3.35;;;2.28;;
81864;SDS011;71313;43.514;1.500;2024-02-15T00:13:38;5.68;;;2.30;;
81864;SDS011;71313;43.514;1.500;2024-02-15T00:16:04;5.78;;;2.22;;
81864;SDS011;71313;43.514;1.500;2024-02-15T00:18:31;4.47;;;2.40;;
81864;SDS011;71313;43.514;1.500;2024-02-15T00:20:56;4.50;;;2.33;;
81864;SDS011;71313;43.514;1.500;2024-02-15T00:23:22;5.72;;;2.47;;
81864;SDS011;71313;43.514;1.500;2024-02-15T00:25:47;3.88;;;2.20;;
81864;SDS011;71313;43.514;1.500;2024-02-15T00:28:14;4.47;;;2.35;;
81864;SDS011;71313;43.514;1.500;2024-02-15T00:30:40;5.85;;;2.47;;
81864;SDS011;71313;43.514;1.500;2024-02-15T00:33:05;4.47;;;2.85;;
81864;SDS011;71313;43.514;1.500;2024-02-15T00:35:31;3.85;;;2.30;;
81864;SDS011;71313;43.514;1.500;2024-02-15T00:37:57;4.40;;;2.13;;
81864;SDS011;71313;43.514;1.500;2024-02-15T00:40:22;4.75;;;2.60;;
81864;SDS011;71313;43.514;1.500;2024-02-15T00:42:48;5.57;;;2.63;;
81864;SDS011;71313;43.514;1.500;2024-02-15T00:45:13;5.82;;;2.70;;
81864;SDS011;71313;43.514;1.500;2024-02-15T00:47:39;4.70;;;2.50;;
81864;SDS011;71313;43.514;1.500;2024-02-15T00:50:07;5.25;;;2.53;;
81864;SDS011;71313;43.514;1.500;2024-02-15T00:52:34;4.80;;;2.63;;
81864;SDS011;71313;43.514;1.500;2024-02-15T00:54:59;4.97;;;2.72;;
81864;SDS011;71313;43.514;1.500;2024-02-15T00:57:25;5.53;;;2.80;;
81864;SDS011;71313;43.514;1.500;2024-02-15T00:59:50;5.30;;;2.83;;
81864;SDS011;71313;43.514;1.500;2024-02-15T01:02:17;4.82;;;2.70;;
81864;SDS011;71313;43.514;1.500;2024-02-15T01:04:43;4.28;;;3.00;;
81864;SDS011;71313;43.514;1.500;2024-02-15T01:07:10;6.05;;;3.15;;
81864;SDS011;71313;43.514;1.500;2024-02-15T01:09:35;5.43;;;2.78;;
81864;SDS011;71313;43.514;1.500;2024-02-15T01:12:01;4.50;;;3.03;;
81864;SDS011;71313;43.514;1.500;2024-02-15T01:14:29;6.63;;;3.22;;
81864;SDS011;71313;43.514;1.500;2024-02-15T01:16:55;5.63;;;3.33;;
81864;SDS011;71313;43.514;1.500;2024-02-15T01:19:21;4.15;;;3.00;;
81864;SDS011;71313;43.514;1.500;2024-02-15T01:21:46;5.20;;;3.17;;
81864;SDS011;71313;43.514;1.500;2024-02-15T01:24:12;6.22;;;2.95;;
81864;SDS011;71313;43.514;1.500;2024-02-15T01:26:37;6.18;;;3.00;;
81864;SDS011;71313;43.514;1.500;2024-02-15T01:29:02;4.78;;;3.38;;
81864;SDS011;71313;43.514;1.500;2024-02-15T01:31:28;8.20;;;3.30;;
81864;SDS011;71313;43.514;1.500;2024-02-15T01:33:54;7.70;;;3.40;;
81864;SDS011;71313;43.514;1.500;2024-02-15T01:36:19;5.60;;;3.33;;
81864;SDS011;71313;43.514;1.500;2024-02-15T01:38:45;6.88;;;3.20;;
81864;SDS011;71313;43.514;1.500;2024-02-15T01:41:11;4.75;;;3.15;;
81864;SDS011;71313;43.514;1.500;2024-02-15T01:43:37;5.93;;;2.97;;
81864;SDS011;71313;43.514;1.500;2024-02-15T01:46:06;6.35;;;3.58;;
81864;SDS011;71313;43.514;1.500;2024-02-15T01:48:36;6.10;;;3.03;;
81864;SDS011;71313;43.514;1.500;2024-02-15T01:51:02;5.40;;;3.10;;
81864;SDS011;71313;43.514;1.500;2024-02-15T01:53:28;5.68;;;3.38;;
81864;SDS011;71313;43.514;1.500;2024-02-15T01:55:55;5.07;;;3.13;;
81864;SDS011;71313;43.514;1.500;2024-02-15T01:58:22;7.07;;;3.42;;
81864;SDS011;71313;43.514;1.500;2024-02-15T02:00:52;7.13;;;3.53;;
81864;SDS011;71313;43.514;1.500;2024-02-15T02:03:18;6.47;;;3.38;;
81864;SDS011;71313;43.514;1.500;2024-02-15T02:05:46;6.90;;;3.60;;
81864;SDS011;71313;43.514;1.500;2024-02-15T02:08:12;4.40;;;2.85;;
81864;SDS011;71313;43.514;1.500;2024-02-15T02:10:38;5.15;;;3.00;;
81864;SDS011;71313;43.514;1.500;2024-02-15T02:13:04;5.47;;;3.08;;
81864;SDS011;71313;43.514;1.500;2024-02-15T02:15:33;6.53;;;3.40;;
81864;SDS011;71313;43.514;1.500;2024-02-15T02:18:00;5.63;;;2.80;;
81864;SDS011;71313;43.514;1.500;2024-02-15T02:20:25;4.25;;;2.90;;
81864;SDS011;71313;43.514;1.500;2024-02-15T02:22:52;6.78;;;3.05;;
81864;SDS011;71313;43.514;1.500;2024-02-15T02:25:20;4.65;;;2.80;;
81864;SDS011;71313;43.514;1.500;2024-02-15T02:27:46;5.95;;;2.92;;
81864;SDS011;71313;43.514;1.500;2024-02-15T02:30:13;6.60;;;2.60;;
81864;SDS011;71313;43.514;1.500;2024-02-15T02:32:46;6.20;;;2.35;;
81864;SDS011;71313;43.514;1.500;2024-02-15T02:35:12;4.80;;;2.40;;
81864;SDS011;71313;43.514;1.500;2024-02-15T02:37:38;3.53;;;2.50;;
81864;SDS011;71313;43.514;1.500;2024-02-15T02:40:05;3.88;;;1.95;;
81864;SDS011;71313;43.514;1.500;2024-02-15T02:42:50;5.35;;;2.38;;
81864;SDS011;71313;43.514;1.500;2024-02-15T02:45:17;5.68;;;2.45;;
81864;SDS011;71313;43.514;1.500;2024-02-15T02:47:45;4.35;;;2.20;;
81864;SDS011;71313;43.514;1.500;2024-02-15T02:50:12;3.58;;;2.25;;
81864;SDS011;71313;43.514;1.500;2024-02-15T02:52:38;3.95;;;2.08;;
81864;SDS011;71313;43.514;1.500;2024-02-15T02:55:04;3.95;;;2.08;;
81864;SDS011;71313;43.514;1.500;2024-02-15T02:57:33;5.28;;;2.53;;
81864;SDS011;71313;43.514;1.500;2024-02-15T02:59:58;4.50;;;2.53;;
81864;SDS011;71313;43.514;1.500;2024-02-15T03:02:23;5.35;;;2.58;;
81864;SDS011;71313;43.514;1.500;2024-02-15T03:04:49;4.82;;;2.42;;
81864;SDS011;71313;43.514;1.500;2024-02-15T03:07:15;4.30;;;2.70;;
81864;SDS011;71313;43.514;1.500;2024-02-15T03:09:42;5.28;;;2.92;;
81864;SDS011;71313;43.514;1.500;2024-02-15T03:12:07;6.47;;;2.90;;
81864;SDS011;71313;43.514;1.500;2024-02-15T03:14:34;5.00;;;2.40;;
81864;SDS011;71313;43.514;1.500;2024-02-15T03:17:00;4.68;;;2.58;;
81864;SDS011;71313;43.514;1.500;2024-02-15T03:19:28;6.35;;;2.70;;
81864;SDS011;71313;43.514;1.500;2024-02-15T03:21:55;6.05;;;3.03;;
81864;SDS011;71313;43.514;1.500;2024-02-15T03:24:21;4.07;;;2.78;;
81864;SDS011;71313;43.514;1.500;2024-02-15T03:26:47;4.47;;;2.45;;
81864;SDS011;71313;43.514;1.500;2024-02-15T03:29:12;7.40;;;3.30;;
81864;SDS011;71313;43.514;1.500;2024-02-15T03:31:37;6.20;;;3.38;;
81864;SDS011;71313;43.514;1.500;2024-02-15T03:34:03;5.40;;;3.13;;
81864;SDS011;71313;43.514;1.500;2024-02-15T03:36:29;6.95;;;3.63;;
81864;SDS011;71313;43.514;1.500;2024-02-15T03:38:54;9.02;;;3.70;;
81864;SDS011;71313;43.514;1.500;2024-02-15T03:41:20;6.68;;;3.63;;
81864;SDS011;71313;43.514;1.500;2024-02-15T03:43:46;9.30;;;4.00;;
81864;SDS011;71313;43.514;1.500;2024-02-15T03:46:12;7.35;;;4.10;;
81864;SDS011;71313;43.514;1.500;2024-02-15T03:48:39;7.03;;;3.45;;
81864;SDS011;71313;43.514;1.500;2024-02-15T03:51:07;5.63;;;3.38;;
81864;SDS011;71313;43.514;1.500;2024-02-15T03:53:34;7.32;;;3.67;;
81864;SDS011;71313;43.514;1.500;2024-02-15T03:56:02;5.25;;;3.10;;
81864;SDS011;71313;43.514;1.500;2024-02-15T03:58:29;5.43;;;3.20;;
81864;SDS011;71313;43.514;1.500;2024-02-15T04:00:57;7.35;;;3.13;;
81864;SDS011;71313;43.514;1.500;2024-02-15T04:03:23;5.88;;;3.10;;
81864;SDS011;71313;43.514;1.500;2024-02-15T04:05:48;5.63;;;3.30;;
81864;SDS011;71313;43.514;1.500;2024-02-15T04:08:14;5.60;;;3.25;;
81864;SDS011;71313;43.514;1.500;2024-02-15T04:10:40;5.63;;;2.97;;
81864;SDS011;71313;43.514;1.500;2024-02-15T04:13:06;5.65;;;2.80;;
81864;SDS011;71313;43.514;1.500;2024-02-15T04:15:32;6.53;;;3.20;;
81864;SDS011;71313;43.514;1.500;2024-02-15T04:17:58;5.90;;;2.97;;
81864;SDS011;71313;43.514;1.500;2024-02-15T04:20:24;3.42;;;2.25;;
81864;SDS011;71313;43.514;1.500;2024-02-15T04:22:51;4.60;;;2.25;;
81864;SDS011;71313;43.514;1.500;2024-02-15T04:25:17;4.07;;;2.28;;
81864;SDS011;71313;43.514;1.500;2024-02-15T04:27:45;4.63;;;2.13;;
81864;SDS011;71313;43.514;1.500;2024-02-15T04:30:12;2.78;;;1.83;;
81864;SDS011;71313;43.514;1.500;2024-02-15T04:32:38;4.32;;;2.28;;
81864;SDS011;71313;43.514;1.500;2024-02-15T04:35:03;4.28;;;2.10;;
81864;SDS011;71313;43.514;1.500;2024-02-15T04:37:30;5.38;;;2.20;;
81864;SDS011;71313;43.514;1.500;2024-02-15T04:39:57;3.25;;;2.05;;
81864;SDS011;71313;43.514;1.500;2024-02-15T04:42:23;4.63;;;2.33;;
81864;SDS011;71313;43.514;1.500;2024-02-15T04:44:52;4.55;;;2.25;;
81864;SDS011;71313;43.514;1.500;2024-02-15T04:47:19;5.45;;;2.35;;
81864;SDS011;71313;43.514;1.500;2024-02-15T04:49:45;4.72;;;2.30;;
81864;SDS011;71313;43.514;1.500;2024-02-15T04:52:10;4.97;;;2.40;;
81864;SDS011;71313;43.514;1.500;2024-02-15T04:54:36;6.53;;;2.33;;
81864;SDS011;71313;43.514;1.500;2024-02-15T04:57:03;5.80;;;2.60;;
81864;SDS011;71313;43.514;1.500;2024-02-15T04:59:28;5.47;;;2.40;;
81864;SDS011;71313;43.514;1.500;2024-02-15T05:01:54;4.53;;;2.13;;
81864;SDS011;71313;43.514;1.500;2024-02-15T05:04:21;5.70;;;2.50;;
81864;SDS011;71313;43.514;1.500;2024-02-15T05:06:49;5.63;;;2.03;;
81864;SDS011;71313;43.514;1.500;2024-02-15T05:09:15;5.20;;;2.25;;
81864;SDS011;71313;43.514;1.500;2024-02-15T05:11:43;5.57;;;2.58;;
81864;SDS011;71313;43.514;1.500;2024-02-15T05:14:13;3.95;;;2.45;;
81864;SDS011;71313;43.514;1.500;2024-02-15T05:16:44;3.25;;;2.10;;
81864;SDS011;71313;43.514;1.500;2024-02-15T05:19:12;5.20;;;2.38;;
81864;SDS011;71313;43.514;1.500;2024-02-15T05:21:38;4.45;;;2.40;;
81864;SDS011;71313;43.514;1.500;2024-02-15T05:24:04;4.68;;;2.13;;
81864;SDS011;71313;43.514;1.500;2024-02-15T05:26:30;5.30;;;2.30;;
81864;SDS011;71313;43.514;1.500;2024-02-15T05:28:55;4.70;;;2.40;;
81864;SDS011;71313;43.514;1.500;2024-02-15T05:31:21;2.78;;;1.88;;
81864;SDS011;71313;43.514;1.500;2024-02-15T05:33:50;4.03;;;2.35;;
81864;SDS011;71313;43.514;1.500;2024-02-15T05:36:17;2.83;;;1.90;;
81864;SDS011;71313;43.514;1.500;2024-02-15T05:38:47;3.40;;;2.10;;
81864;SDS011;71313;43.514;1.500;2024-02-15T05:41:17;4.35;;;2.13;;
81864;SDS011;71313;43.514;1.500;2024-02-15T05:43:42;5.18;;;2.33;;
81864;SDS011;71313;43.514;1.500;2024-02-15T05:46:08;4.05;;;2.17;;
81864;SDS011;71313;43.514;1.500;2024-02-15T05:48:35;4.60;;;2.20;;
81864;SDS011;71313;43.514;1.500;2024-02-15T05:51:05;5.20;;;2.50;;
81864;SDS011;71313;43.514;1.500;2024-02-15T05:53:33;4.65;;;2.47;;
81864;SDS011;71313;43.514;1.500;2024-02-15T05:56:01;3.97;;;2.20;;
81864;SDS011;71313;43.514;1.500;2024-02-15T05:58:30;5.72;;;2.35;;
81864;SDS011;71313;43.514;1.500;2024-02-15T06:00:56;5.60;;;2.85;;
81864;SDS011;71313;43.514;1.500;2024-02-15T06:03:27;4.80;;;2.65;;
81864;SDS011;71313;43.514;1.500;2024-02-15T06:06:06;4.18;;;2.30;;
81864;SDS011;71313;43.514;1.500;2024-02-15T06:08:33;3.95;;;2.53;;
81864;SDS011;71313;43.514;1.500;2024-02-15T06:10:58;3.83;;;2.38;;
81864;SDS011;71313;43.514;1.500;2024-02-15T06:13:24;4.43;;;2.30;;
81864;SDS011;71313;43.514;1.500;2024-02-15T06:15:51;4.82;;;2.35;;
81864;SDS011;71313;43.514;1.500;2024-02-15T06:20:47;4.55;;;2.40;;
81864;SDS011;71313;43.514;1.500;2024-02-15T06:23:25;3.63;;;2.20;;
81864;SDS011;71313;43.514;1.500;2024-02-15T06:25:52;4.15;;;2.08;;
81864;SDS011;71313;43.514;1.500;2024-02-15T06:28:19;3.95;;;1.92;;
81864;SDS011;71313;43.514;1.500;2024-02-15T06:31:05;4.75;;;2.38;;
81864;SDS011;71313;43.514;1.500;2024-02-15T06:33:49;3.13;;;1.80;;
81864;SDS011;71313;43.514;1.500;2024-02-15T06:36:33;3.92;;;2.20;;
81864;SDS011;71313;43.514;1.500;2024-02-15T06:39:17;3.45;;;2.15;;
81864;SDS011;71313;43.514;1.500;2024-02-15T06:42:02;3.05;;;1.80;;
81864;SDS011;71313;43.514;1.500;2024-02-15T06:44:28;4.22;;;2.22;;
81864;SDS011;71313;43.514;1.500;2024-02-15T06:46:54;3.13;;;1.88;;
81864;SDS011;71313;43.514;1.500;2024-02-15T06:49:20;3.90;;;2.05;;
81864;SDS011;71313;43.514;1.500;2024-02-15T06:51:49;3.47;;;2.05;;
81864;SDS011;71313;43.514;1.500;2024-02-15T06:54:14;3.40;;;1.83;;
81864;SDS011;71313;43.514;1.500;2024-02-15T06:56:39;2.80;;;1.88;;
81864;SDS011;71313;43.514;1.500;2024-02-15T06:59:05;2.47;;;1.70;;
81864;SDS011;71313;43.514;1.500;2024-02-15T07:01:32;2.70;;;1.85;;
81864;SDS011;71313;43.514;1.500;2024-02-15T07:03:59;2.97;;;2.00;;
81864;SDS011;71313;43.514;1.500;2024-02-15T07:06:24;3.65;;;1.77;;
81864;SDS011;71313;43.514;1.500;2024-02-15T07:08:52;3.83;;;2.15;;
81864;SDS011;71313;43.514;1.500;2024-02-15T07:11:19;3.78;;;1.92;;
81864;SDS011;71313;43.514;1.500;2024-02-15T07:13:44;4.40;;;2.10;;
81864;SDS011;71313;43.514;1.500;2024-02-15T07:16:10;4.05;;;2.08;;
81864;SDS011;71313;43.514;1.500;2024-02-15T07:18:36;3.67;;;1.83;;
81864;SDS011;71313;43.514;1.500;2024-02-15T07:21:02;4.45;;;2.15;;
81864;SDS011;71313;43.514;1.500;2024-02-15T07:23:33;3.95;;;1.92;;
81864;SDS011;71313;43.514;1.500;2024-02-15T07:25:59;5.05;;;2.17;;
81864;SDS011;71313;43.514;1.500;2024-02-15T07:28:24;3.47;;;1.80;;
81864;SDS011;71313;43.514;1.500;2024-02-15T07:30:54;3.53;;;1.98;;
81864;SDS011;71313;43.514;1.500;2024-02-15T07:33:20;3.80;;;2.00;;
81864;SDS011;71313;43.514;1.500;2024-02-15T07:35:47;4.80;;;2.05;;
81864;SDS011;71313;43.514;1.500;2024-02-15T07:38:16;3.08;;;1.95;;
81864;SDS011;71313;43.514;1.500;2024-02-15T07:40:41;3.70;;;1.83;;
81864;SDS011;71313;43.514;1.500;2024-02-15T07:43:07;4.22;;;2.03;;
81864;SDS011;71313;43.514;1.500;2024-02-15T07:45:32;3.00;;;1.98;;
81864;SDS011;71313;43.514;1.500;2024-02-15T07:48:01;3.58;;;1.90;;
81864;SDS011;71313;43.514;1.500;2024-02-15T07:50:29;4.07;;;2.03;;
81864;SDS011;71313;43.514;1.500;2024-02-15T07:52:55;4.68;;;2.13;;
81864;SDS011;71313;43.514;1.500;2024-02-15T07:55:21;3.17;;;1.70;;
81864;SDS011;71313;43.514;1.500;2024-02-15T07:57:46;3.80;;;2.00;;
81864;SDS011;71313;43.514;1.500;2024-02-15T08:00:13;3.25;;;1.85;;
81864;SDS011;71313;43.514;1.500;2024-02-15T08:02:41;3.67;;;1.75;;
81864;SDS011;71313;43.514;1.500;2024-02-15T08:05:09;3.00;;;1.90;;
81864;SDS011;71313;43.514;1.500;2024-02-15T08:07:45;3.22;;;1.88;;
81864;SDS011;71313;43.514;1.500;2024-02-15T08:10:14;2.60;;;1.90;;
81864;SDS011;71313;43.514;1.500;2024-02-15T08:15:09;4.63;;;1.95;;
81864;SDS011;71313;43.514;1.500;2024-02-15T08:17:39;6.15;;;2.30;;
81864;SDS011;71313;43.514;1.500;2024-02-15T08:20:09;3.63;;;2.10;;
81864;SDS011;71313;43.514;1.500;2024-02-15T08:22:35;3.75;;;2.17;;
81864;SDS011;71313;43.514;1.500;2024-02-15T08:25:11;4.07;;;2.33;;
81864;SDS011;71313;43.514;1.500;2024-02-15T08:27:37;3.83;;;2.33;;
81864;SDS011;71313;43.514;1.500;2024-02-15T08:30:14;3.55;;;1.90;;
81864;SDS011;71313;43.514;1.500;2024-02-15T08:32:40;3.55;;;2.00;;
81864;SDS011;71313;43.514;1.500;2024-02-15T08:35:07;3.08;;;1.90;;
81864;SDS011;71313;43.514;1.500;2024-02-15T08:37:34;2.80;;;1.98;;
81864;SDS011;71313;43.514;1.500;2024-02-15T08:40:00;3.17;;;1.70;;
81864;SDS011;71313;43.514;1.500;2024-02-15T08:42:29;2.42;;;1.85;;
81864;SDS011;71313;43.514;1.500;2024-02-15T08:44:55;3.85;;;1.80;;
81864;SDS011;71313;43.514;1.500;2024-02-15T08:47:21;4.47;;;1.85;;
81864;SDS011;71313;43.514;1.500;2024-02-15T08:49:47;2.85;;;1.80;;
81864;SDS011;71313;43.514;1.500;2024-02-15T08:52:12;4.43;;;1.80;;
81864;SDS011;71313;43.514;1.500;2024-02-15T08:54:38;4.20;;;2.10;;
81864;SDS011;71313;43.514;1.500;2024-02-15T08:57:04;4.60;;;2.15;;
81864;SDS011;71313;43.514;1.500;2024-02-15T08:59:30;5.75;;;2.58;;
81864;SDS011;71313;43.514;1.500;2024-02-15T09:01:55;4.50;;;2.50;;
81864;SDS011;71313;43.514;1.500;2024-02-15T09:04:22;5.10;;;2.58;;
81864;SDS011;71313;43.514;1.500;2024-02-15T09:06:49;3.78;;;2.17;;
81864;SDS011;71313;43.514;1.500;2024-02-15T09:09:15;3.17;;;2.05;;
81864;SDS011;71313;43.514;1.500;2024-02-15T09:11:41;4.78;;;2.47;;
81864;SDS011;71313;43.514;1.500;2024-02-15T09:14:07;4.22;;;2.20;;
81864;SDS011;71313;43.514;1.500;2024-02-15T09:16:35;3.40;;;1.88;;
81864;SDS011;71313;43.514;1.500;2024-02-15T09:19:01;4.35;;;2.00;;
81864;SDS011;71313;43.514;1.500;2024-02-15T09:21:27;4.78;;;2.25;;
81864;SDS011;71313;43.514;1.500;2024-02-15T09:23:54;5.75;;;2.05;;
81864;SDS011;71313;43.514;1.500;2024-02-15T09:26:19;4.72;;;2.00;;
81864;SDS011;71313;43.514;1.500;2024-02-15T09:28:45;3.42;;;1.98;;
81864;SDS011;71313;43.514;1.500;2024-02-15T09:31:14;4.53;;;1.98;;
81864;SDS011;71313;43.514;1.500;2024-02-15T09:33:39;3.80;;;1.98;;
81864;SDS011;71313;43.514;1.500;2024-02-15T09:36:05;5.22;;;2.22;;
81864;SDS011;71313;43.514;1.500;2024-02-15T09:38:31;4.70;;;2.28;;
81864;SDS011;71313;43.514;1.500;2024-02-15T09:40:56;6.18;;;2.42;;
81864;SDS011;71313;43.514;1.500;2024-02-15T09:43:22;5.20;;;2.08;;
81864;SDS011;71313;43.514;1.500;2024-02-15T09:45:51;4.57;;;2.22;;
81864;SDS011;71313;43.514;1.500;2024-02-15T09:48:17;3.85;;;2.63;;
81864;SDS011;71313;43.514;1.500;2024-02-15T09:50:43;3.80;;;2.30;;
81864;SDS011;71313;43.514;1.500;2024-02-15T09:53:11;5.90;;;2.55;;
81864;SDS011;71313;43.514;1.500;2024-02-15T09:55:38;4.45;;;2.45;;
81864;SDS011;71313;43.514;1.500;2024-02-15T09:58:06;4.32;;;2.10;;
81864;SDS011;71313;43.514;1.500;2024-02-15T10:00:33;3.88;;;2.20;;
81864;SDS011;71313;43.514;1.500;2024-02-15T10:03:00;5.53;;;2.40;;
81864;SDS011;71313;43.514;1.500;2024-02-15T10:05:27;4.90;;;2.75;;
81864;SDS011;71313;43.514;1.500;2024-02-15T10:07:53;5.57;;;2.63;;
81864;SDS011;71313;43.514;1.500;2024-02-15T10:10:19;5.70;;;2.78;;
81864;SDS011;71313;43.514;1.500;2024-02-15T10:12:47;4.32;;;2.53;;
81864;SDS011;71313;43.514;1.500;2024-02-15T10:17:55;6.07;;;2.72;;
81864;SDS011;71313;43.514;1.500;2024-02-15T10:20:21;4.40;;;2.25;;
81864;SDS011;71313;43.514;1.500;2024-02-15T10:22:51;5.47;;;2.80;;
81864;SDS011;71313;43.514;1.500;2024-02-15T10:25:18;5.40;;;3.03;;
81864;SDS011;71313;43.514;1.500;2024-02-15T10:27:44;5.22;;;2.40;;
81864;SDS011;71313;43.514;1.500;2024-02-15T10:30:19;4.13;;;2.53;;
81864;SDS011;71313;43.514;1.500;2024-02-15T10:32:45;3.78;;;2.20;;
81864;SDS011;71313;43.514;1.500;2024-02-15T10:35:20;3.58;;;1.92;;
81864;SDS011;71313;43.514;1.500;2024-02-15T10:37:47;2.55;;;1.90;;
81864;SDS011;71313;43.514;1.500;2024-02-15T10:40:22;3.38;;;1.80;;
81864;SDS011;71313;43.514;1.500;2024-02-15T10:42:48;4.00;;;1.70;;
81864;SDS011;71313;43.514;1.500;2024-02-15T10:45:16;2.88;;;1.98;;
81864;SDS011;71313;43.514;1.500;2024-02-15T10:47:44;3.05;;;1.50;;
81864;SDS011;71313;43.514;1.500;2024-02-15T10:50:11;1.77;;;1.45;;
81864;SDS011;71313;43.514;1.500;2024-02-15T10:52:37;2.67;;;1.63;;
81864;SDS011;71313;43.514;1.500;2024-02-15T10:58:34;3.83;;;1.80;;
81864;SDS011;71313;43.514;1.500;2024-02-15T11:01:11;3.55;;;1.85;;
81864;SDS011;71313;43.514;1.500;2024-02-15T11:03:50;5.63;;;1.80;;
81864;SDS011;71313;43.514;1.500;2024-02-15T11:06:18;3.65;;;1.73;;
81864;SDS011;71313;43.514;1.500;2024-02-15T11:08:46;3.72;;;1.70;;
81864;SDS011;71313;43.514;1.500;2024-02-15T11:11:13;3.83;;;2.05;;
81864;SDS011;71313;43.514;1.500;2024-02-15T11:13:39;4.70;;;2.33;;
81864;SDS011;71313;43.514;1.500;2024-02-15T11:16:05;3.70;;;2.10;;
81864;SDS011;71313;43.514;1.500;2024-02-15T11:18:46;5.40;;;3.35;;
81864;SDS011;71313;43.514;1.500;2024-02-15T11:24:26;5.00;;;2.30;;
81864;SDS011;71313;43.514;1.500;2024-02-15T11:27:00;3.22;;;2.05;;
81864;SDS011;71313;43.514;1.500;2024-02-15T11:35:05;8.82;;;3.83;;
81864;SDS011;71313;43.514;1.500;2024-02-15T11:40:13;4.22;;;2.40;;
81864;SDS011;71313;43.514;1.500;2024-02-15T11:42:42;3.40;;;2.03;;
81864;SDS011;71313;43.514;1.500;2024-02-15T11:45:08;4.10;;;2.08;;
81864;SDS011;71313;43.514;1.500;2024-02-15T11:47:37;3.30;;;2.00;;
81864;SDS011;71313;43.514;1.500;2024-02-15T11:50:06;4.50;;;1.90;;
81864;SDS011;71313;43.514;1.500;2024-02-15T11:52:37;3.03;;;2.10;;
81864;SDS011;71313;43.514;1.500;2024-02-15T11:55:06;5.97;;;4.10;;
81864;SDS011;71313;43.514;1.500;2024-02-15T11:57:38;4.32;;;2.40;;
81864;SDS011;71313;43.514;1.500;2024-02-15T12:00:25;4.57;;;2.30;;
81864;SDS011;71313;43.514;1.500;2024-02-15T12:03:10;4.18;;;2.03;;
81864;SDS011;71313;43.514;1.500;2024-02-15T12:05:57;4.97;;;2.10;;
81864;SDS011;71313;43.514;1.500;2024-02-15T12:08:47;5.13;;;2.00;;
81864;SDS011;71313;43.514;1.500;2024-02-15T12:11:33;4.93;;;1.80;;
81864;SDS011;71313;43.514;1.500;2024-02-15T12:14:17;3.28;;;1.80;;
81864;SDS011;71313;43.514;1.500;2024-02-15T12:17:02;3.88;;;2.08;;
81864;SDS011;71313;43.514;1.500;2024-02-15T12:19:49;4.13;;;1.98;;
81864;SDS011;71313;43.514;1.500;2024-02-15T12:22:16;3.42;;;2.15;;
81864;SDS011;71313;43.514;1.500;2024-02-15T12:24:52;3.92;;;1.70;;
81864;SDS011;71313;43.514;1.500;2024-02-15T12:27:18;2.92;;;1.88;;
81864;SDS011;71313;43.514;1.500;2024-02-15T12:29:45;3.03;;;1.60;;
81864;SDS011;71313;43.514;1.500;2024-02-15T12:32:19;2.97;;;1.83;;
81864;SDS011;71313;43.514;1.500;2024-02-15T12:34:45;5.35;;;1.63;;
81864;SDS011;71313;43.514;1.500;2024-02-15T12:37:12;3.78;;;1.65;;
81864;SDS011;71313;43.514;1.500;2024-02-15T12:39:38;8.50;;;1.88;;
81864;SDS011;71313;43.514;1.500;2024-02-15T12:42:03;4.47;;;2.05;;
81864;SDS011;71313;43.514;1.500;2024-02-15T12:44:32;3.78;;;1.55;;
81864;SDS011;71313;43.514;1.500;2024-02-15T12:46:58;3.65;;;1.80;;
81864;SDS011;71313;43.514;1.500;2024-02-15T12:51:53;3.05;;;1.40;;
81864;SDS011;71313;43.514;1.500;2024-02-15T12:54:20;4.25;;;1.85;;
81864;SDS011;71313;43.514;1.500;2024-02-15T12:56:46;2.65;;;1.75;;
81864;SDS011;71313;43.514;1.500;2024-02-15T12:59:17;5.00;;;2.97;;
81864;SDS011;71313;43.514;1.500;2024-02-15T13:01:46;3.55;;;1.58;;
81864;SDS011;71313;43.514;1.500;2024-02-15T13:04:24;4.47;;;2.28;;
81864;SDS011;71313;43.514;1.500;2024-02-15T13:06:50;5.43;;;2.20;;
81864;SDS011;71313;43.514;1.500;2024-02-15T13:09:15;2.60;;;1.70;;
81864;SDS011;71313;43.514;1.500;2024-02-15T13:11:41;2.97;;;1.50;;
81864;SDS011;71313;43.514;1.500;2024-02-15T13:14:10;3.50;;;1.63;;
81864;SDS011;71313;43.514;1.500;2024-02-15T13:16:35;4.18;;;2.00;;
81864;SDS011;71313;43.514;1.500;2024-02-15T13:19:02;3.88;;;1.65;;
81864;SDS011;71313;43.514;1.500;2024-02-15T13:21:28;3.17;;;1.67;;
81864;SDS011;71313;43.514;1.500;2024-02-15T13:23:55;2.17;;;1.58;;
81864;SDS011;71313;43.514;1.500;2024-02-15T13:26:21;3.67;;;1.58;;
81864;SDS011;71313;43.514;1.500;2024-02-15T13:28:48;3.40;;;1.90;;
81864;SDS011;71313;43.514;1.500;2024-02-15T13:31:14;4.88;;;2.05;;
81864;SDS011;71313;43.514;1.500;2024-02-15T13:33:40;2.28;;;1.17;;
81864;SDS011;71313;43.514;1.500;2024-02-15T13:36:06;3.00;;;1.77;;
81864;SDS011;71313;43.514;1.500;2024-02-15T13:38:35;3.53;;;1.52;;
81864;SDS011;71313;43.514;1.500;2024-02-15T13:41:03;1.73;;;1.30;;
81864;SDS011;71313;43.514;1.500;2024-02-15T13:43:29;4.97;;;1.90;;
81864;SDS011;71313;43.514;1.500;2024-02-15T13:45:57;4.15;;;1.85;;
81864;SDS011;71313;43.514;1.500;2024-02-15T13:48:22;2.20;;;1.40;;
81864;SDS011;71313;43.514;1.500;2024-02-15T13:50:51;4.00;;;1.85;;
81864;SDS011;71313;43.514;1.500;2024-02-15T13:53:18;5.22;;;2.72;;
81864;SDS011;71313;43.514;1.500;2024-02-15T13:55:43;1.92;;;1.40;;
81864;SDS011;71313;43.514;1.500;2024-02-15T13:58:09;5.72;;;2.47;;
81864;SDS011;71313;43.514;1.500;2024-02-15T14:00:37;3.45;;;1.27;;
81864;SDS011;71313;43.514;1.500;2024-02-15T14:03:05;3.70;;;1.45;;
81864;SDS011;71313;43.514;1.500;2024-02-15T14:05:31;3.10;;;1.70;;
81864;SDS011;71313;43.514;1.500;2024-02-15T14:08:01;3.35;;;2.05;;
81864;SDS011;71313;43.514;1.500;2024-02-15T14:10:29;3.85;;;1.30;;
81864;SDS011;71313;43.514;1.500;2024-02-15T14:12:55;2.03;;;1.30;;
81864;SDS011;71313;43.514;1.500;2024-02-15T14:15:23;3.35;;;1.55;;
81864;SDS011;71313;43.514;1.500;2024-02-15T14:17:51;3.30;;;1.15;;
81864;SDS011;71313;43.514;1.500;2024-02-15T14:20:17;2.45;;;1.63;;
81864;SDS011;71313;43.514;1.500;2024-02-15T14:22:47;3.45;;;1.30;;
81864;SDS011;71313;43.514;1.500;2024-02-15T14:25:14;5.65;;;2.10;;
81864;SDS011;71313;43.514;1.500;2024-02-15T14:27:40;3.50;;;1.65;;
81864;SDS011;71313;43.514;1.500;2024-02-15T14:30:06;2.53;;;1.33;;
81864;SDS011;71313;43.514;1.500;2024-02-15T14:32:51;3.25;;;1.35;;
81864;SDS011;71313;43.514;1.500;2024-02-15T14:35:32;2.58;;;1.50;;
81864;SDS011;71313;43.514;1.500;2024-02-15T14:38:03;4.07;;;1.63;;
81864;SDS011;71313;43.514;1.500;2024-02-15T14:40:36;5.20;;;1.42;;
81864;SDS011;71313;43.514;1.500;2024-02-15T14:43:02;2.78;;;1.38;;
81864;SDS011;71313;43.514;1.500;2024-02-15T14:45:32;2.78;;;1.80;;
81864;SDS011;71313;43.514;1.500;2024-02-15T14:47:59;3.80;;;1.80;;
81864;SDS011;71313;43.514;1.500;2024-02-15T14:50:25;3.70;;;1.88;;
81864;SDS011;71313;43.514;1.500;2024-02-15T14:52:53;2.72;;;1.65;;
81864;SDS011;71313;43.514;1.500;2024-02-15T14:55:19;3.00;;;1.67;;
81864;SDS011;71313;43.514;1.500;2024-02-15T14:57:44;3.58;;;1.60;;
81864;SDS011;71313;43.514;1.500;2024-02-15T15:00:10;2.70;;;1.63;;
81864;SDS011;71313;43.514;1.500;2024-02-15T15:02:39;4.13;;;1.92;;
81864;SDS011;71313;43.514;1.500;2024-02-15T15:05:06;3.92;;;1.63;;
81864;SDS011;71313;43.514;1.500;2024-02-15T15:07:51;4.00;;;1.80;;
81864;SDS011;71313;43.514;1.500;2024-02-15T15:10:35;4.25;;;2.00;;
81864;SDS011;71313;43.514;1.500;2024-02-15T15:13:20;3.75;;;2.28;;
81864;SDS011;71313;43.514;1.500;2024-02-15T15:15:46;7.53;;;2.60;;
81864;SDS011;71313;43.514;1.500;2024-02-15T15:18:13;6.70;;;2.22;;